Time;durP1;ratioP1;P1;durP2;ratioP2;P2;SDS_P1;SDS_P2;PMS_P1;PMS_P2;Temp;Humidity;BMP_temperature;BMP_pressure;BME280_temperature;BME280_humidity;BME280_pressure;Samples;Min_cycle;Max_cycle;Signal;HPM_P1;HPM_P2
2024/04/18 00:02:07;;;;;;;9.25;3.10;;;;;;;;;;5264573;26;97396;-51
2024/04/18 00:04:32;;;;;;;7.93;1.70;;;;;;;;;;5265288;26;95793;-51
2024/04/18 00:06:57;;;;;;;11.90;4.90;;;;;;;;;;5264183;26;95834;-52
2024/04/18 00:09:22;;;;;;;16.65;7.18;;;;;;;;;;5265136;26;96132;-52
2024/04/18 00:11:48;;;;;;;6.45;2.08;;;;;;;;;;5268365;26;96053;-52
2024/04/18 00:14:13;;;;;;;7.72;3.17;;;;;;;;;;5265442;26;96142;-52
2024/04/18 00:16:38;;;;;;;7.65;2.03;;;;;;;;;;5262908;26;95936;-56
2024/04/18 00:19:04;;;;;;;6.72;1.98;;;;;;;;;;5263875;26;95854;-56
2024/04/18 00:21:29;;;;;;;8.77;1.48;;;;;;;;;;5265271;26;96045;-52
2024/04/18 00:23:55;;;;;;;4.45;1.35;;;;;;;;;;5264919;26;96467;-52
2024/04/18 00:26:20;;;;;;;3.47;1.00;;;;;;;;;;5264927;26;95401;-52
2024/04/18 00:28:45;;;;;;;3.70;0.80;;;;;;;;;;5264636;26;95982;-53
2024/04/18 00:31:11;;;;;;;9.35;1.10;;;;;;;;;;5264284;26;97497;-51
2024/04/18 00:33:36;;;;;;;6.30;0.93;;;;;;;;;;5267427;26;95779;-52
2024/04/18 00:36:01;;;;;;;7.80;1.00;;;;;;;;;;5262838;26;98718;-52
2024/04/18 00:38:26;;;;;;;6.25;1.25;;;;;;;;;;5265034;26;95836;-52
2024/04/18 00:40:52;;;;;;;5.95;0.90;;;;;;;;;;5265242;26;98747;-52
2024/04/18 00:43:20;;;;;;;5.68;1.08;;;;;;;;;;5265871;26;97151;-51
2024/04/18 00:45:46;;;;;;;7.72;1.55;;;;;;;;;;5263965;26;96486;-51
2024/04/18 00:48:11;;;;;;;18.10;7.03;;;;;;;;;;5263160;26;96005;-52
2024/04/18 00:50:37;;;;;;;11.40;4.95;;;;;;;;;;5257496;26;95883;-52
2024/04/18 00:53:03;;;;;;;18.30;7.32;;;;;;;;;;5257568;26;95542;-56
2024/04/18 00:55:29;;;;;;;9.68;3.47;;;;;;;;;;5265380;26;96060;-56
2024/04/18 00:57:55;;;;;;;10.98;3.17;;;;;;;;;;5262045;26;95547;-51
2024/04/18 01:00:21;;;;;;;8.85;3.42;;;;;;;;;;5265660;26;95973;-52
2024/04/18 01:02:46;;;;;;;7.78;4.00;;;;;;;;;;5260284;26;97325;-52
2024/04/18 01:05:11;;;;;;;6.38;2.42;;;;;;;;;;5262512;26;95667;-52
2024/04/18 01:07:37;;;;;;;9.40;3.05;;;;;;;;;;5261323;26;95994;-57
2024/04/18 01:10:02;;;;;;;4.30;2.30;;;;;;;;;;5260592;26;97647;-56
2024/04/18 01:12:27;;;;;;;5.63;2.20;;;;;;;;;;5260377;26;96018;-52
2024/04/18 01:14:53;;;;;;;12.18;5.38;;;;;;;;;;5262710;26;96207;-52
2024/04/18 01:17:18;;;;;;;4.22;1.58;;;;;;;;;;5264583;26;96064;-57
2024/04/18 01:19:43;;;;;;;3.67;1.15;;;;;;;;;;5262160;26;96020;-56
2024/04/18 01:22:08;;;;;;;5.47;3.58;;;;;;;;;;5263741;26;96691;-52
2024/04/18 01:24:34;;;;;;;6.60;4.25;;;;;;;;;;5263224;26;95461;-52
2024/04/18 01:26:59;;;;;;;4.80;2.13;;;;;;;;;;5262633;26;96075;-51
2024/04/18 01:29:26;;;;;;;2.13;0.82;;;;;;;;;;5264003;26;95949;-52
2024/04/18 01:31:51;;;;;;;2.72;0.52;;;;;;;;;;5262238;26;95448;-52
2024/04/18 01:34:18;;;;;;;2.22;0.50;;;;;;;;;;5258099;26;95917;-51
2024/04/18 01:36:44;;;;;;;2.67;0.50;;;;;;;;;;5266407;26;97225;-52
2024/04/18 01:39:09;;;;;;;3.00;0.90;;;;;;;;;;5262574;26;95978;-52
2024/04/18 01:41:34;;;;;;;2.75;0.70;;;;;;;;;;5260560;26;96951;-52
2024/04/18 01:44:00;;;;;;;2.78;0.30;;;;;;;;;;5257475;26;96542;-53
2024/04/18 01:46:25;;;;;;;2.05;0.25;;;;;;;;;;5253698;26;96797;-52
2024/04/18 01:48:51;;;;;;;1.67;0.30;;;;;;;;;;5255642;26;96660;-50
2024/04/18 01:51:16;;;;;;;3.05;0.75;;;;;;;;;;5264361;26;95575;-50
2024/04/18 01:53:41;;;;;;;1.50;0.30;;;;;;;;;;5262877;26;95946;-50
2024/04/18 01:56:07;;;;;;;2.08;0.40;;;;;;;;;;5263584;26;96095;-49
2024/04/18 01:58:32;;;;;;;1.48;0.30;;;;;;;;;;5266629;26;95977;-49
2024/04/18 02:00:57;;;;;;;2.75;0.30;;;;;;;;;;5260938;26;97284;-50
2024/04/18 02:03:23;;;;;;;1.45;0.30;;;;;;;;;;5261455;26;95803;-49
2024/04/18 02:05:48;;;;;;;3.33;0.30;;;;;;;;;;5263606;26;98158;-49
2024/04/18 02:08:14;;;;;;;4.22;1.85;;;;;;;;;;5227098;26;98662;-49
2024/04/18 02:10:41;;;;;;;2.40;0.30;;;;;;;;;;5264485;26;95427;-49
2024/04/18 02:13:06;;;;;;;3.13;0.40;;;;;;;;;;5258088;26;97346;-50
2024/04/18 02:15:31;;;;;;;1.55;0.30;;;;;;;;;;5263094;26;95970;-50
2024/04/18 02:17:57;;;;;;;1.92;0.32;;;;;;;;;;5262920;26;95829;-50
2024/04/18 02:20:22;;;;;;;3.13;0.30;;;;;;;;;;5268058;26;96849;-49
2024/04/18 02:22:47;;;;;;;4.93;0.50;;;;;;;;;;5263890;26;97205;-49
2024/04/18 02:25:13;;;;;;;1.58;0.30;;;;;;;;;;5264325;26;95976;-48
2024/04/18 02:27:41;;;;;;;2.33;0.30;;;;;;;;;;5263745;26;96092;-53
2024/04/18 02:30:07;;;;;;;2.30;0.30;;;;;;;;;;5262255;26;95411;-54
2024/04/18 02:32:33;;;;;;;1.90;0.30;;;;;;;;;;5260122;26;96135;-49
2024/04/18 02:34:59;;;;;;;2.08;0.30;;;;;;;;;;5262142;26;97166;-50
2024/04/18 02:37:24;;;;;;;3.33;0.40;;;;;;;;;;5263288;26;95744;-50
2024/04/18 02:39:50;;;;;;;1.20;0.30;;;;;;;;;;5262990;26;96072;-50
2024/04/18 02:42:18;;;;;;;2.30;0.35;;;;;;;;;;5298137;26;98836;-50
2024/04/18 02:44:44;;;;;;;1.05;0.43;;;;;;;;;;5262153;26;96308;-50
2024/04/18 02:47:09;;;;;;;1.42;0.30;;;;;;;;;;5261375;26;97205;-49
2024/04/18 02:49:35;;;;;;;2.85;0.38;;;;;;;;;;5262156;26;96777;-49
2024/04/18 02:52:01;;;;;;;1.83;0.30;;;;;;;;;;5262643;26;97316;-50
2024/04/18 02:54:26;;;;;;;2.67;0.57;;;;;;;;;;5262432;26;96065;-50
2024/04/18 02:56:51;;;;;;;2.15;0.50;;;;;;;;;;5262489;26;95736;-49
2024/04/18 02:59:17;;;;;;;1.40;0.30;;;;;;;;;;5261700;26;97341;-49
2024/04/18 03:01:42;;;;;;;2.80;0.40;;;;;;;;;;5260669;26;97786;-50
2024/04/18 03:04:08;;;;;;;1.25;0.40;;;;;;;;;;5255992;26;96130;-49
2024/04/18 03:06:33;;;;;;;3.17;0.55;;;;;;;;;;5253932;26;95869;-50
2024/04/18 03:08:58;;;;;;;1.67;0.30;;;;;;;;;;5262556;26;95569;-49
2024/04/18 03:11:23;;;;;;;0.90;0.30;;;;;;;;;;5262280;26;95952;-54
2024/04/18 03:13:49;;;;;;;2.30;0.50;;;;;;;;;;5260007;26;95928;-54
2024/04/18 03:16:15;;;;;;;1.65;0.50;;;;;;;;;;5260979;26;96101;-50
2024/04/18 03:18:42;;;;;;;2.50;0.30;;;;;;;;;;5262870;26;95954;-50
2024/04/18 03:21:07;;;;;;;1.83;0.40;;;;;;;;;;5260240;26;96013;-48
2024/04/18 03:23:32;;;;;;;2.08;0.40;;;;;;;;;;5264885;26;97079;-48
2024/04/18 03:25:58;;;;;;;2.10;1.50;;;;;;;;;;5261291;26;95875;-49
2024/04/18 03:28:23;;;;;;;1.90;0.40;;;;;;;;;;5261902;26;95776;-50
2024/04/18 03:30:48;;;;;;;2.35;0.47;;;;;;;;;;5261927;26;97521;-50
2024/04/18 03:33:14;;;;;;;1.50;0.40;;;;;;;;;;5262943;26;96061;-49
2024/04/18 03:35:39;;;;;;;1.73;0.30;;;;;;;;;;5263215;26;95415;-49
2024/04/18 03:38:05;;;;;;;1.25;0.20;;;;;;;;;;5262738;26;97009;-49
2024/04/18 03:40:31;;;;;;;3.33;0.30;;;;;;;;;;5257593;26;96615;-48
2024/04/18 03:42:57;;;;;;;1.15;0.30;;;;;;;;;;5262746;26;95700;-49
2024/04/18 03:45:22;;;;;;;1.25;0.20;;;;;;;;;;5268899;26;95854;-49
2024/04/18 03:47:51;;;;;;;4.03;0.47;;;;;;;;;;5264059;26;95866;-50
2024/04/18 03:50:16;;;;;;;1.30;0.30;;;;;;;;;;5255949;26;96022;-50
2024/04/18 03:52:42;;;;;;;2.00;0.30;;;;;;;;;;5200699;26;100786;-50
2024/04/18 03:55:07;;;;;;;0.70;0.22;;;;;;;;;;5264785;26;97782;-49
2024/04/18 03:57:33;;;;;;;3.75;0.45;;;;;;;;;;5280071;26;97636;-53
2024/04/18 03:59:58;;;;;;;1.70;0.30;;;;;;;;;;5264321;26;95968;-54
2024/04/18 04:02:23;;;;;;;1.60;0.28;;;;;;;;;;5263526;26;95777;-50
2024/04/18 04:04:50;;;;;;;2.72;0.30;;;;;;;;;;5264219;26;96583;-49
2024/04/18 04:07:16;;;;;;;2.90;0.40;;;;;;;;;;5268132;26;96336;-50
2024/04/18 04:09:41;;;;;;;1.42;0.30;;;;;;;;;;5262095;26;95810;-51
2024/04/18 04:12:06;;;;;;;2.15;0.32;;;;;;;;;;5264472;26;99376;-54
2024/04/18 04:14:32;;;;;;;2.90;0.30;;;;;;;;;;5263607;26;97400;-54
2024/04/18 04:16:57;;;;;;;2.42;0.30;;;;;;;;;;5263756;26;95852;-51
2024/04/18 04:19:22;;;;;;;1.38;0.40;;;;;;;;;;5264820;26;95972;-51
2024/04/18 04:21:48;;;;;;;1.98;0.40;;;;;;;;;;5264141;26;97827;-51
2024/04/18 04:24:13;;;;;;;1.48;0.30;;;;;;;;;;5265299;26;96060;-50
2024/04/18 04:26:39;;;;;;;2.25;0.30;;;;;;;;;;5263992;26;95967;-50
2024/04/18 04:29:04;;;;;;;1.45;0.45;;;;;;;;;;5265342;26;96071;-51
2024/04/18 04:31:29;;;;;;;4.47;0.40;;;;;;;;;;5260507;26;95969;-54
2024/04/18 04:33:55;;;;;;;2.65;0.35;;;;;;;;;;5263710;26;95849;-54
2024/04/18 04:36:21;;;;;;;2.35;0.50;;;;;;;;;;5248017;26;97466;-51
2024/04/18 04:38:47;;;;;;;3.90;0.70;;;;;;;;;;5263351;26;96220;-50
2024/04/18 04:41:12;;;;;;;2.80;0.50;;;;;;;;;;5264688;26;95984;-51
2024/04/18 04:43:38;;;;;;;2.58;0.52;;;;;;;;;;5264714;26;95962;-50
2024/04/18 04:46:05;;;;;;;1.05;0.40;;;;;;;;;;5263511;26;95999;-50
2024/04/18 04:48:30;;;;;;;1.98;0.30;;;;;;;;;;5263783;26;96106;-51
2024/04/18 04:50:58;;;;;;;2.67;0.40;;;;;;;;;;5260206;26;97416;-50
2024/04/18 04:53:24;;;;;;;2.13;0.45;;;;;;;;;;5264331;26;95826;-50
2024/04/18 04:55:49;;;;;;;0.90;0.32;;;;;;;;;;5295544;26;98750;-50
2024/04/18 04:58:15;;;;;;;1.83;0.50;;;;;;;;;;5261892;26;96230;-49
2024/04/18 05:00:40;;;;;;;4.18;0.47;;;;;;;;;;5260868;26;95874;-48
2024/04/18 05:03:05;;;;;;;3.47;0.35;;;;;;;;;;5253756;26;97737;-50
2024/04/18 05:05:31;;;;;;;2.05;0.50;;;;;;;;;;5258884;26;96144;-49
2024/04/18 05:07:56;;;;;;;2.03;0.40;;;;;;;;;;5259869;26;95477;-54
2024/04/18 05:10:22;;;;;;;2.15;0.40;;;;;;;;;;5259625;26;96449;-54
2024/04/18 05:12:50;;;;;;;2.97;0.40;;;;;;;;;;5264007;26;96053;-54
2024/04/18 05:15:16;;;;;;;1.85;0.50;;;;;;;;;;5258204;26;96021;-54
2024/04/18 05:17:41;;;;;;;1.20;0.40;;;;;;;;;;5259874;26;95478;-52
2024/04/18 05:20:08;;;;;;;2.63;0.70;;;;;;;;;;5258138;26;97250;-52
2024/04/18 05:22:33;;;;;;;4.03;0.40;;;;;;;;;;5249467;26;96053;-50
2024/04/18 05:24:59;;;;;;;2.40;0.40;;;;;;;;;;5258336;26;97231;-50
2024/04/18 05:27:24;;;;;;;3.10;0.50;;;;;;;;;;5248935;26;98414;-50
2024/04/18 05:32:33;;;;;;;2.80;0.63;;;;;;;;;;5265207;26;97460;-50
2024/04/18 05:34:58;;;;;;;3.88;0.50;;;;;;;;;;5261559;26;96063;-51
2024/04/18 05:37:24;;;;;;;1.75;0.40;;;;;;;;;;5260783;26;96103;-50
2024/04/18 05:39:49;;;;;;;2.97;0.50;;;;;;;;;;5257896;26;97076;-51
2024/04/18 05:42:15;;;;;;;2.17;0.47;;;;;;;;;;5260310;26;97329;-52
2024/04/18 05:44:40;;;;;;;2.80;0.50;;;;;;;;;;5259331;26;96612;-56
2024/04/18 05:47:06;;;;;;;3.65;0.50;;;;;;;;;;5256561;26;95923;-55
2024/04/18 05:49:31;;;;;;;4.57;0.75;;;;;;;;;;5260024;26;95900;-55
2024/04/18 05:51:57;;;;;;;3.50;0.80;;;;;;;;;;5257877;26;96143;-59
2024/04/18 05:54:22;;;;;;;1.67;0.90;;;;;;;;;;5262445;26;97196;-58
2024/04/18 05:56:47;;;;;;;2.53;0.77;;;;;;;;;;5258143;26;95479;-58
2024/04/18 05:59:13;;;;;;;1.75;0.60;;;;;;;;;;5260663;26;95861;-58
2024/04/18 06:01:38;;;;;;;2.53;1.02;;;;;;;;;;5253926;26;97302;-58
2024/04/18 06:04:03;;;;;;;3.90;1.05;;;;;;;;;;5255800;26;98666;-59
2024/04/18 06:06:28;;;;;;;2.72;0.80;;;;;;;;;;5261717;26;95811;-58
2024/04/18 06:08:54;;;;;;;4.03;1.23;;;;;;;;;;5263689;26;96128;-58
2024/04/18 06:11:35;;;;;;;2.15;1.20;;;;;;;;;;5264232;26;95864;-58
2024/04/18 06:14:01;;;;;;;4.13;1.30;;;;;;;;;;5262173;26;95676;-58
2024/04/18 06:16:26;;;;;;;3.50;1.27;;;;;;;;;;5266906;26;95852;-55
2024/04/18 06:18:51;;;;;;;3.70;1.30;;;;;;;;;;5265502;26;95812;-55
2024/04/18 06:21:17;;;;;;;5.13;1.70;;;;;;;;;;5264045;26;96053;-60
2024/04/18 06:23:42;;;;;;;3.65;1.23;;;;;;;;;;5265402;26;96000;-59
2024/04/18 06:26:07;;;;;;;5.45;2.03;;;;;;;;;;5265211;26;95852;-57
2024/04/18 06:28:33;;;;;;;5.63;1.98;;;;;;;;;;5265755;26;96082;-60
2024/04/18 06:30:58;;;;;;;4.03;2.05;;;;;;;;;;5262470;26;95921;-57
2024/04/18 06:33:25;;;;;;;4.78;1.58;;;;;;;;;;5264341;26;95455;-58
2024/04/18 06:35:53;;;;;;;4.70;1.65;;;;;;;;;;5264121;26;96056;-56
2024/04/18 06:38:18;;;;;;;5.55;1.83;;;;;;;;;;5266923;26;95978;-56
2024/04/18 06:40:45;;;;;;;7.57;3.20;;;;;;;;;;5263696;26;96229;-58
2024/04/18 06:43:10;;;;;;;4.82;1.70;;;;;;;;;;5263200;26;96067;-57
2024/04/18 06:45:38;;;;;;;5.45;2.33;;;;;;;;;;5263553;26;95779;-58
2024/04/18 06:48:05;;;;;;;2.63;1.70;;;;;;;;;;5259824;26;96555;-56
2024/04/18 06:50:30;;;;;;;2.95;1.88;;;;;;;;;;5262795;26;95848;-58
2024/04/18 06:52:55;;;;;;;3.38;2.10;;;;;;;;;;5261664;26;96805;-54
2024/04/18 06:55:22;;;;;;;6.63;2.47;;;;;;;;;;5262869;26;97148;-55
2024/04/18 06:57:48;;;;;;;3.35;2.28;;;;;;;;;;5260630;26;95842;-58
2024/04/18 07:00:13;;;;;;;5.65;2.85;;;;;;;;;;5256346;26;95688;-57
2024/04/18 07:02:39;;;;;;;6.38;3.22;;;;;;;;;;5241202;26;96232;-59
2024/04/18 07:05:04;;;;;;;6.65;2.75;;;;;;;;;;5249378;26;96009;-58
2024/04/18 07:07:29;;;;;;;9.10;2.72;;;;;;;;;;5244750;26;95958;-57
2024/04/18 07:09:55;;;;;;;6.65;2.55;;;;;;;;;;5235695;26;97189;-58
2024/04/18 07:12:20;;;;;;;5.90;2.88;;;;;;;;;;5245852;26;95486;-58
2024/04/18 07:14:45;;;;;;;7.28;2.75;;;;;;;;;;5256136;26;97193;-59
2024/04/18 07:17:11;;;;;;;5.97;2.80;;;;;;;;;;5261347;26;96155;-60
2024/04/18 07:19:36;;;;;;;5.53;3.20;;;;;;;;;;5238480;26;96054;-58
2024/04/18 07:22:01;;;;;;;5.82;3.03;;;;;;;;;;5253698;26;97525;-57
2024/04/18 07:24:27;;;;;;;4.55;2.38;;;;;;;;;;5258498;26;95529;-56
2024/04/18 07:26:52;;;;;;;5.72;2.70;;;;;;;;;;5247220;26;95895;-57
2024/04/18 07:29:17;;;;;;;4.18;2.00;;;;;;;;;;5258870;26;98059;-59
2024/04/18 07:31:43;;;;;;;3.75;1.92;;;;;;;;;;5259807;26;95910;-55
2024/04/18 07:34:08;;;;;;;4.20;2.20;;;;;;;;;;5265121;26;96028;-58
2024/04/18 07:36:33;;;;;;;2.05;1.50;;;;;;;;;;5265932;26;99248;-55
2024/04/18 07:38:59;;;;;;;9.68;2.28;;;;;;;;;;5266623;26;95751;-59
2024/04/18 07:41:24;;;;;;;2.65;1.85;;;;;;;;;;5262952;26;99774;-57
2024/04/18 07:43:50;;;;;;;5.25;1.92;;;;;;;;;;5259148;26;95922;-59
2024/04/18 07:46:15;;;;;;;4.15;1.38;;;;;;;;;;5262943;26;96101;-58
2024/04/18 07:48:40;;;;;;;2.63;1.48;;;;;;;;;;5255796;26;97296;-58
2024/04/18 07:51:06;;;;;;;1.25;1.08;;;;;;;;;;5258908;26;95774;-58
2024/04/18 07:53:31;;;;;;;7.25;2.28;;;;;;;;;;5262746;26;96033;-56
2024/04/18 07:55:57;;;;;;;3.42;1.63;;;;;;;;;;5263249;26;95919;-54
2024/04/18 07:58:23;;;;;;;3.65;1.48;;;;;;;;;;5256106;26;95881;-57
2024/04/18 08:00:50;;;;;;;4.07;2.67;;;;;;;;;;5239669;26;95981;-55
2024/04/18 08:03:16;;;;;;;3.42;1.60;;;;;;;;;;5266657;26;96550;-55
2024/04/18 08:05:41;;;;;;;3.50;1.67;;;;;;;;;;5256171;26;96080;-56
2024/04/18 08:08:07;;;;;;;1.92;1.50;;;;;;;;;;5289046;26;98488;-58
2024/04/18 08:10:32;;;;;;;2.55;1.60;;;;;;;;;;5258079;26;95508;-59
2024/04/18 08:12:57;;;;;;;1.85;1.20;;;;;;;;;;5238503;26;96548;-55
2024/04/18 08:15:23;;;;;;;2.60;1.40;;;;;;;;;;5258432;26;96010;-56
2024/04/18 08:17:48;;;;;;;2.88;1.27;;;;;;;;;;5244279;26;97100;-56
2024/04/18 08:20:13;;;;;;;2.05;1.20;;;;;;;;;;5264726;26;96591;-56
2024/04/18 08:22:39;;;;;;;2.90;1.33;;;;;;;;;;5253199;26;95981;-57
2024/04/18 08:25:06;;;;;;;2.28;1.23;;;;;;;;;;5268122;26;95739;-60
2024/04/18 08:27:32;;;;;;;1.83;1.10;;;;;;;;;;5255507;26;96018;-54
2024/04/18 08:29:57;;;;;;;3.28;1.40;;;;;;;;;;5250160;26;97134;-55
2024/04/18 08:32:23;;;;;;;2.90;1.27;;;;;;;;;;5246106;26;97174;-55
2024/04/18 08:34:48;;;;;;;2.05;1.20;;;;;;;;;;5259529;26;96015;-56
2024/04/18 08:37:14;;;;;;;2.50;2.10;;;;;;;;;;5265007;26;95881;-58
2024/04/18 08:39:39;;;;;;;2.17;1.92;;;;;;;;;;5264890;26;96008;-59
2024/04/18 08:42:09;;;;;;;4.93;1.95;;;;;;;;;;5255701;26;96960;-58
2024/04/18 08:44:35;;;;;;;;;;;;;;;;;;5246734;26;97140;-55
2024/04/18 08:47:01;;;;;;;6.30;1.77;;;;;;;;;;5246208;26;96486;-56
2024/04/18 08:49:26;;;;;;;3.88;2.20;;;;;;;;;;5258079;26;95899;-56
2024/04/18 08:51:54;;;;;;;5.10;2.22;;;;;;;;;;5264264;26;95892;-56
2024/04/18 08:54:20;;;;;;;3.30;2.08;;;;;;;;;;5260288;26;97311;-57
2024/04/18 08:56:53;;;;;;;2.17;1.40;;;;;;;;;;5264018;26;95561;-57
2024/04/18 08:59:19;;;;;;;3.28;1.70;;;;;;;;;;5251694;26;96855;-54
2024/04/18 09:01:45;;;;;;;2.70;1.88;;;;;;;;;;5258398;26;95967;-55
2024/04/18 09:04:11;;;;;;;1.00;0.75;;;;;;;;;;5251967;26;95875;-56
2024/04/18 09:06:36;;;;;;;3.50;1.55;;;;;;;;;;5254725;26;97030;-56
2024/04/18 09:09:01;;;;;;;5.68;1.25;;;;;;;;;;5262392;26;98781;-54
2024/04/18 09:11:26;;;;;;;2.60;0.90;;;;;;;;;;5264004;26;95709;-56
2024/04/18 09:13:52;;;;;;;2.20;1.27;;;;;;;;;;5255430;26;96026;-53
2024/04/18 09:16:17;;;;;;;2.83;1.38;;;;;;;;;;5263015;26;95916;-54
2024/04/18 09:18:44;;;;;;;3.30;1.70;;;;;;;;;;5258167;26;96593;-55
2024/04/18 09:21:11;;;;;;;2.03;1.08;;;;;;;;;;5254559;26;97368;-53
2024/04/18 09:23:37;;;;;;;1.08;0.68;;;;;;;;;;5262666;26;95806;-53
2024/04/18 09:26:03;;;;;;;1.10;0.73;;;;;;;;;;5264493;26;96166;-55
2024/04/18 09:28:28;;;;;;;1.48;0.70;;;;;;;;;;5264246;26;95945;-56
2024/04/18 09:30:54;;;;;;;1.60;0.60;;;;;;;;;;5263927;26;97119;-54
2024/04/18 09:33:20;;;;;;;0.93;0.50;;;;;;;;;;5249235;26;97978;-55
2024/04/18 09:35:49;;;;;;;3.80;0.57;;;;;;;;;;5261725;26;95850;-55
2024/04/18 09:38:16;;;;;;;2.15;0.80;;;;;;;;;;5263235;26;97156;-57
2024/04/18 09:40:51;;;;;;;3.20;0.88;;;;;;;;;;5251334;26;95768;-52
2024/04/18 09:43:26;;;;;;;1.98;0.77;;;;;;;;;;5243069;26;95856;-52
2024/04/18 09:46:02;;;;;;;1.38;0.57;;;;;;;;;;5258141;26;95935;-55
2024/04/18 09:48:29;;;;;;;1.30;0.60;;;;;;;;;;5264024;26;96450;-55
2024/04/18 09:50:55;;;;;;;2.00;0.70;;;;;;;;;;5267321;26;96138;-56
2024/04/18 09:53:21;;;;;;;3.80;0.75;;;;;;;;;;5264460;26;96606;-53
2024/04/18 09:55:48;;;;;;;1.23;0.50;;;;;;;;;;5255173;26;95591;-53
2024/04/18 09:58:15;;;;;;;3.25;0.60;;;;;;;;;;5252861;26;95476;-52
2024/04/18 10:00:42;;;;;;;2.58;0.85;;;;;;;;;;5249284;26;95974;-53
2024/04/18 10:03:09;;;;;;;2.17;0.50;;;;;;;;;;5245959;26;95999;-53
2024/04/18 10:05:36;;;;;;;2.50;1.20;;;;;;;;;;5255114;26;95995;-52
2024/04/18 10:08:03;;;;;;;2.08;0.80;;;;;;;;;;5244447;26;97295;-52
2024/04/18 10:10:30;;;;;;;2.60;2.17;;;;;;;;;;5243232;26;95523;-53
2024/04/18 10:12:56;;;;;;;1.58;0.88;;;;;;;;;;5257165;26;98036;-54
2024/04/18 10:15:23;;;;;;;3.30;1.30;;;;;;;;;;5229487;26;95997;-54
2024/04/18 10:17:49;;;;;;;4.60;1.67;;;;;;;;;;5253140;26;96076;-55
2024/04/18 10:20:14;;;;;;;4.80;1.67;;;;;;;;;;5247932;26;97422;-58
2024/04/18 10:22:40;;;;;;;3.40;1.55;;;;;;;;;;5246460;26;96664;-54
2024/04/18 10:25:18;;;;;;;29.42;8.20;;;;;;;;;;5245298;26;95979;-54
2024/04/18 10:27:43;;;;;;;12.80;8.52;;;;;;;;;;5254623;26;98309;-54
2024/04/18 10:30:14;;;;;;;42.15;35.85;;;;;;;;;;5251056;26;95719;-54
2024/04/18 10:32:42;;;;;;;4.07;2.63;;;;;;;;;;5260925;26;98789;-55
2024/04/18 10:35:07;;;;;;;3.97;0.50;;;;;;;;;;5253175;26;97405;-54
2024/04/18 10:37:33;;;;;;;1.33;0.40;;;;;;;;;;5258910;26;97727;-53
2024/04/18 10:39:59;;;;;;;5.10;0.75;;;;;;;;;;5249084;26;98038;-54
2024/04/18 10:42:24;;;;;;;1.50;0.30;;;;;;;;;;5253631;26;95521;-54
2024/04/18 10:44:50;;;;;;;0.85;0.60;;;;;;;;;;5247026;26;95957;-54
2024/04/18 10:47:20;;;;;;;0.95;0.43;;;;;;;;;;5252898;26;97771;-54
2024/04/18 10:49:46;;;;;;;0.82;0.50;;;;;;;;;;5248451;26;96326;-54
2024/04/18 10:52:17;;;;;;;18.05;1.30;;;;;;;;;;5249514;26;96337;-55
2024/04/18 10:54:44;;;;;;;2.47;0.50;;;;;;;;;;5247446;26;95997;-54
2024/04/18 10:57:09;;;;;;;1.33;0.40;;;;;;;;;;5255833;26;95853;-54
2024/04/18 10:59:38;;;;;;;1.02;0.40;;;;;;;;;;5249710;26;96108;-55
2024/04/18 11:02:04;;;;;;;0.32;0.20;;;;;;;;;;5251401;26;95961;-56
2024/04/18 11:04:30;;;;;;;20.98;1.00;;;;;;;;;;5256335;26;96694;-56
2024/04/18 11:06:55;;;;;;;0.80;0.60;;;;;;;;;;5264097;26;96010;-53
2024/04/18 11:09:21;;;;;;;1.70;0.40;;;;;;;;;;5263680;26;95756;-53
2024/04/18 11:11:46;;;;;;;1.02;0.40;;;;;;;;;;5257833;26;97169;-55
2024/04/18 11:14:13;;;;;;;10.65;7.53;;;;;;;;;;5250243;26;96553;-55
2024/04/18 11:16:38;;;;;;;1.10;0.77;;;;;;;;;;5252021;26;97105;-54
2024/04/18 11:19:04;;;;;;;0.93;0.32;;;;;;;;;;5247904;26;96153;-56
2024/04/18 11:21:29;;;;;;;0.77;0.10;;;;;;;;;;5250720;26;96017;-55
2024/04/18 11:23:55;;;;;;;5.82;0.20;;;;;;;;;;5243138;26;95964;-55
2024/04/18 11:26:27;;;;;;;0.82;0.22;;;;;;;;;;5249214;26;97741;-58
2024/04/18 11:28:55;;;;;;;1.33;0.20;;;;;;;;;;5236065;26;95893;-57
2024/04/18 11:31:21;;;;;;;0.43;0.10;;;;;;;;;;5258738;26;97988;-55
2024/04/18 11:33:47;;;;;;;1.27;0.10;;;;;;;;;;5257655;26;97591;-55
2024/04/18 11:36:14;;;;;;;1.30;0.10;;;;;;;;;;5264420;26;95868;-54
2024/04/18 11:38:39;;;;;;;1.42;0.10;;;;;;;;;;5258992;26;96023;-56
2024/04/18 11:41:04;;;;;;;45.63;2.25;;;;;;;;;;5259145;26;95573;-57
2024/04/18 11:43:30;;;;;;;1.55;0.10;;;;;;;;;;5247043;26;96058;-55
2024/04/18 11:45:55;;;;;;;3.85;0.20;;;;;;;;;;5251710;26;98872;-57
2024/04/18 11:48:21;;;;;;;32.65;0.70;;;;;;;;;;5262002;26;96241;-55
2024/04/18 11:50:46;;;;;;;0.25;0.03;;;;;;;;;;5258887;26;96032;-55
2024/04/18 11:53:12;;;;;;;3.15;0.10;;;;;;;;;;5241970;26;97808;-56
2024/04/18 11:55:37;;;;;;;1.55;0.10;;;;;;;;;;5256401;26;95879;-55
2024/04/18 11:58:03;;;;;;;19.92;1.48;;;;;;;;;;5244280;26;97111;-54
2024/04/18 12:00:29;;;;;;;1.08;0.13;;;;;;;;;;5248671;26;96030;-54
2024/04/18 12:02:55;;;;;;;0.22;0.10;;;;;;;;;;5244717;26;97153;-55
2024/04/18 12:05:21;;;;;;;0.73;0.00;;;;;;;;;;5250237;26;96231;-54
2024/04/18 12:07:47;;;;;;;0.60;0.10;;;;;;;;;;5256147;26;95629;-54
2024/04/18 12:10:12;;;;;;;0.30;0.10;;;;;;;;;;5247638;26;95994;-55
2024/04/18 12:12:37;;;;;;;0.75;0.10;;;;;;;;;;5248523;26;96096;-56
2024/04/18 12:15:03;;;;;;;0.30;0.00;;;;;;;;;;5259693;26;95837;-56
2024/04/18 12:17:28;;;;;;;2.53;0.20;;;;;;;;;;5247255;26;97195;-55
2024/04/18 12:19:54;;;;;;;0.60;0.00;;;;;;;;;;5238864;26;96072;-55
2024/04/18 12:22:22;;;;;;;1.42;0.00;;;;;;;;;;5276201;26;95653;-56
2024/04/18 12:24:47;;;;;;;1.98;0.10;;;;;;;;;;5259220;26;96876;-57
2024/04/18 12:27:13;;;;;;;1.65;0.10;;;;;;;;;;5246306;26;97563;-54
2024/04/18 12:29:38;;;;;;;1.15;0.10;;;;;;;;;;5254963;26;96033;-53
2024/04/18 12:32:04;;;;;;;0.30;0.03;;;;;;;;;;5247850;26;97882;-54
2024/04/18 12:34:30;;;;;;;0.65;0.10;;;;;;;;;;5265390;26;95392;-54
2024/04/18 12:36:55;;;;;;;1.80;0.10;;;;;;;;;;5247556;26;96019;-54
2024/04/18 12:39:22;;;;;;;1.55;0.10;;;;;;;;;;5261266;26;96413;-54
2024/04/18 12:41:47;;;;;;;0.45;0.10;;;;;;;;;;5246924;26;97656;-54
2024/04/18 12:44:14;;;;;;;1.70;0.10;;;;;;;;;;5247827;26;96109;-52
2024/04/18 12:46:40;;;;;;;0.90;0.08;;;;;;;;;;5254290;26;95495;-51
2024/04/18 12:49:05;;;;;;;0.10;0.00;;;;;;;;;;5253584;26;96130;-50
2024/04/18 12:51:30;;;;;;;0.20;0.10;;;;;;;;;;5250444;26;98005;-51
2024/04/18 12:53:56;;;;;;;0.95;0.10;;;;;;;;;;5259036;26;95599;-51
2024/04/18 12:56:21;;;;;;;0.70;0.10;;;;;;;;;;5248249;26;96060;-53
2024/04/18 12:58:46;;;;;;;3.17;0.20;;;;;;;;;;5253396;26;96375;-51
2024/04/18 13:01:12;;;;;;;0.10;0.10;;;;;;;;;;5251966;26;95945;-53
2024/04/18 13:03:38;;;;;;;1.17;0.00;;;;;;;;;;5247435;26;97951;-53
2024/04/18 13:06:04;;;;;;;8.15;0.32;;;;;;;;;;5244551;26;97335;-51
2024/04/18 13:08:29;;;;;;;1.27;0.10;;;;;;;;;;5264012;26;96039;-55
2024/04/18 13:10:54;;;;;;;0.90;0.10;;;;;;;;;;5264396;26;96124;-53
2024/04/18 13:13:20;;;;;;;0.98;0.10;;;;;;;;;;5264939;26;96071;-53
2024/04/18 13:15:46;;;;;;;2.50;0.10;;;;;;;;;;5265392;26;95866;-50
2024/04/18 13:18:12;;;;;;;0.80;0.10;;;;;;;;;;5264546;26;96122;-52
2024/04/18 13:20:37;;;;;;;1.08;0.10;;;;;;;;;;5266269;26;95839;-51
2024/04/18 13:23:03;;;;;;;0.28;0.10;;;;;;;;;;5265609;26;97533;-53
2024/04/18 13:25:28;;;;;;;1.60;0.20;;;;;;;;;;5264949;26;96065;-53
2024/04/18 13:27:53;;;;;;;1.85;0.20;;;;;;;;;;5268577;26;97541;-54
2024/04/18 13:30:19;;;;;;;63.08;2.70;;;;;;;;;;5250772;26;96123;-52
2024/04/18 13:32:44;;;;;;;1.23;0.10;;;;;;;;;;5250703;26;97104;-53
2024/04/18 13:35:10;;;;;;;0.77;0.10;;;;;;;;;;5252355;26;96018;-53
2024/04/18 13:37:35;;;;;;;0.85;0.10;;;;;;;;;;5250545;26;96070;-53
2024/04/18 13:40:02;;;;;;;0.50;0.13;;;;;;;;;;5246328;26;96937;-52
2024/04/18 13:42:27;;;;;;;0.00;0.00;;;;;;;;;;5251820;26;95864;-52
2024/04/18 13:44:53;;;;;;;2.28;0.20;;;;;;;;;;5254609;26;97295;-54
2024/04/18 13:47:18;;;;;;;1.95;0.10;;;;;;;;;;5251563;26;95785;-53
2024/04/18 13:49:44;;;;;;;0.77;0.20;;;;;;;;;;5253432;26;96151;-53
2024/04/18 13:52:09;;;;;;;0.70;0.10;;;;;;;;;;5250241;26;96127;-51
2024/04/18 13:54:35;;;;;;;3.72;0.10;;;;;;;;;;5253578;26;96020;-53
2024/04/18 13:57:03;;;;;;;1.00;0.10;;;;;;;;;;5259735;26;97215;-50
2024/04/18 13:59:29;;;;;;;12.82;0.30;;;;;;;;;;5262152;26;97634;-50
2024/04/18 14:01:54;;;;;;;1.23;0.20;;;;;;;;;;5252442;26;97805;-51
2024/04/18 14:04:19;;;;;;;0.88;0.10;;;;;;;;;;5300963;26;97372;-52
2024/04/18 14:06:45;;;;;;;1.33;0.15;;;;;;;;;;5264686;26;95453;-54
2024/04/18 14:09:10;;;;;;;4.00;0.20;;;;;;;;;;5255754;26;97189;-53
2024/04/18 14:11:35;;;;;;;0.82;0.10;;;;;;;;;;5247701;26;97386;-51
2024/04/18 14:14:01;;;;;;;0.40;0.10;;;;;;;;;;5252811;26;96052;-50
2024/04/18 14:19:13;;;;;;;1.38;0.10;;;;;;;;;;5254686;26;95484;-50
2024/04/18 14:21:38;;;;;;;0.75;0.10;;;;;;;;;;5246919;26;96097;-53
2024/04/18 14:24:04;;;;;;;1.55;0.10;;;;;;;;;;5252221;26;96067;-55
2024/04/18 14:26:29;;;;;;;13.90;0.50;;;;;;;;;;5251246;26;95921;-54
2024/04/18 14:28:55;;;;;;;0.85;0.10;;;;;;;;;;5258266;26;95609;-54
2024/04/18 14:31:22;;;;;;;0.20;0.05;;;;;;;;;;5254769;26;96132;-55
2024/04/18 14:33:47;;;;;;;0.45;0.10;;;;;;;;;;5241833;26;97646;-54
2024/04/18 14:36:12;;;;;;;1.02;0.10;;;;;;;;;;5249525;26;97566;-49
2024/04/18 14:38:38;;;;;;;2.28;0.10;;;;;;;;;;5249019;26;95664;-50
2024/04/18 14:41:04;;;;;;;0.43;0.10;;;;;;;;;;5247675;26;98322;-54